sensor_id;sensor_type;location;lat;lon;timestamp;temperature;humidity
20658;DHT22;10488;50.846;4.078;2023-04-24T00:00:54;9.90;99.90
20658;DHT22;10488;50.846;4.078;2023-04-24T00:03:23;9.80;99.90
20658;DHT22;10488;50.846;4.078;2023-04-24T00:05:49;10.00;99.90
20658;DHT22;10488;50.846;4.078;2023-04-24T00:08:15;10.10;99.90
20658;DHT22;10488;50.846;4.078;2023-04-24T00:10:41;10.10;99.90
20658;DHT22;10488;50.846;4.078;2023-04-24T00:13:07;10.10;99.90
20658;DHT22;10488;50.846;4.078;2023-04-24T00:15:32;10.10;99.90
20658;DHT22;10488;50.846;4.078;2023-04-24T00:17:58;10.00;99.90
20658;DHT22;10488;50.846;4.078;2023-04-24T00:20:24;10.00;99.90
20658;DHT22;10488;50.846;4.078;2023-04-24T00:22:49;9.90;99.90
20658;DHT22;10488;50.846;4.078;2023-04-24T00:25:15;10.10;99.90
20658;DHT22;10488;50.846;4.078;2023-04-24T00:27:41;10.10;99.90
20658;DHT22;10488;50.846;4.078;2023-04-24T00:30:07;10.00;99.90
20658;DHT22;10488;50.846;4.078;2023-04-24T00:32:33;10.00;99.90
20658;DHT22;10488;50.846;4.078;2023-04-24T00:34:58;9.90;99.90
20658;DHT22;10488;50.846;4.078;2023-04-24T00:37:24;10.00;99.90
20658;DHT22;10488;50.846;4.078;2023-04-24T00:39:50;9.80;99.90
20658;DHT22;10488;50.846;4.078;2023-04-24T00:42:16;9.70;99.90
20658;DHT22;10488;50.846;4.078;2023-04-24T00:44:42;9.90;99.90
20658;DHT22;10488;50.846;4.078;2023-04-24T00:47:07;9.80;99.90
20658;DHT22;10488;50.846;4.078;2023-04-24T00:49:33;9.70;99.90
20658;DHT22;10488;50.846;4.078;2023-04-24T00:51:59;9.70;99.90
20658;DHT22;10488;50.846;4.078;2023-04-24T00:54:25;9.70;99.90
20658;DHT22;10488;50.846;4.078;2023-04-24T00:56:51;9.70;99.90
20658;DHT22;10488;50.846;4.078;2023-04-24T00:59:18;9.60;99.90
20658;DHT22;10488;50.846;4.078;2023-04-24T01:01:45;9.70;99.90
20658;DHT22;10488;50.846;4.078;2023-04-24T01:04:12;9.60;99.90
20658;DHT22;10488;50.846;4.078;2023-04-24T01:06:43;9.60;99.90
20658;DHT22;10488;50.846;4.078;2023-04-24T01:09:10;9.60;99.90
20658;DHT22;10488;50.846;4.078;2023-04-24T01:11:37;9.60;99.90
20658;DHT22;10488;50.846;4.078;2023-04-24T01:14:03;9.60;99.90
20658;DHT22;10488;50.846;4.078;2023-04-24T01:16:29;9.50;99.90
20658;DHT22;10488;50.846;4.078;2023-04-24T01:18:55;9.70;99.90
20658;DHT22;10488;50.846;4.078;2023-04-24T01:21:21;9.70;99.90
20658;DHT22;10488;50.846;4.078;2023-04-24T01:23:49;9.70;99.90
20658;DHT22;10488;50.846;4.078;2023-04-24T01:26:16;9.70;99.90
20658;DHT22;10488;50.846;4.078;2023-04-24T01:28:42;9.90;99.90
20658;DHT22;10488;50.846;4.078;2023-04-24T01:31:08;9.80;99.90
20658;DHT22;10488;50.846;4.078;2023-04-24T01:33:34;9.70;99.90
20658;DHT22;10488;50.846;4.078;2023-04-24T01:36:00;9.60;99.90
20658;DHT22;10488;50.846;4.078;2023-04-24T01:38:26;9.70;99.90
20658;DHT22;10488;50.846;4.078;2023-04-24T01:40:52;9.70;99.90
20658;DHT22;10488;50.846;4.078;2023-04-24T01:43:18;9.80;99.90
20658;DHT22;10488;50.846;4.078;2023-04-24T01:45:44;9.60;99.90
20658;DHT22;10488;50.846;4.078;2023-04-24T01:48:11;9.60;99.90
20658;DHT22;10488;50.846;4.078;2023-04-24T01:50:37;9.70;99.90
20658;DHT22;10488;50.846;4.078;2023-04-24T01:53:03;9.70;99.90
20658;DHT22;10488;50.846;4.078;2023-04-24T01:55:29;9.70;99.90
20658;DHT22;10488;50.846;4.078;2023-04-24T01:57:56;9.50;99.90
20658;DHT22;10488;50.846;4.078;2023-04-24T02:00:22;9.60;99.90
20658;DHT22;10488;50.846;4.078;2023-04-24T02:02:48;9.60;99.90
20658;DHT22;10488;50.846;4.078;2023-04-24T02:05:13;9.60;99.90
20658;DHT22;10488;50.846;4.078;2023-04-24T02:07:39;9.60;99.90
20658;DHT22;10488;50.846;4.078;2023-04-24T02:10:05;9.60;99.90
20658;DHT22;10488;50.846;4.078;2023-04-24T02:12:31;9.60;99.90
20658;DHT22;10488;50.846;4.078;2023-04-24T02:14:57;9.70;99.90
20658;DHT22;10488;50.846;4.078;2023-04-24T02:17:23;9.70;99.90
20658;DHT22;10488;50.846;4.078;2023-04-24T02:19:48;9.60;99.90
20658;DHT22;10488;50.846;4.078;2023-04-24T02:22:14;9.70;99.90
20658;DHT22;10488;50.846;4.078;2023-04-24T02:24:40;9.60;99.90
20658;DHT22;10488;50.846;4.078;2023-04-24T02:27:06;9.50;99.90
20658;DHT22;10488;50.846;4.078;2023-04-24T02:29:32;9.30;99.90
20658;DHT22;10488;50.846;4.078;2023-04-24T02:31:57;9.30;99.90
20658;DHT22;10488;50.846;4.078;2023-04-24T02:34:23;9.40;99.90
20658;DHT22;10488;50.846;4.078;2023-04-24T02:36:49;9.20;99.90
20658;DHT22;10488;50.846;4.078;2023-04-24T02:39:15;9.20;99.90
20658;DHT22;10488;50.846;4.078;2023-04-24T02:41:44;9.30;99.90
20658;DHT22;10488;50.846;4.078;2023-04-24T02:44:10;9.20;99.90
20658;DHT22;10488;50.846;4.078;2023-04-24T02:46:35;9.30;99.90
20658;DHT22;10488;50.846;4.078;2023-04-24T02:49:01;9.10;99.90
20658;DHT22;10488;50.846;4.078;2023-04-24T02:51:28;9.10;99.90
20658;DHT22;10488;50.846;4.078;2023-04-24T02:53:54;9.10;99.90
20658;DHT22;10488;50.846;4.078;2023-04-24T02:56:19;9.30;99.90
20658;DHT22;10488;50.846;4.078;2023-04-24T02:58:45;9.20;99.90
20658;DHT22;10488;50.846;4.078;2023-04-24T03:01:11;9.20;99.90
20658;DHT22;10488;50.846;4.078;2023-04-24T03:03:37;9.20;99.90
20658;DHT22;10488;50.846;4.078;2023-04-24T03:06:03;9.20;99.90
20658;DHT22;10488;50.846;4.078;2023-04-24T03:08:31;9.30;99.90
20658;DHT22;10488;50.846;4.078;2023-04-24T03:10:57;9.30;99.90
20658;DHT22;10488;50.846;4.078;2023-04-24T03:13:23;9.30;99.90
20658;DHT22;10488;50.846;4.078;2023-04-24T03:15:48;9.30;99.90
20658;DHT22;10488;50.846;4.078;2023-04-24T03:18:14;9.30;99.90
20658;DHT22;10488;50.846;4.078;2023-04-24T03:20:40;9.30;99.90
20658;DHT22;10488;50.846;4.078;2023-04-24T03:23:05;9.20;99.90
20658;DHT22;10488;50.846;4.078;2023-04-24T03:25:31;9.40;99.90
20658;DHT22;10488;50.846;4.078;2023-04-24T03:27:56;9.40;99.90
20658;DHT22;10488;50.846;4.078;2023-04-24T03:30:22;9.60;99.90
20658;DHT22;10488;50.846;4.078;2023-04-24T03:32:48;9.50;99.90
20658;DHT22;10488;50.846;4.078;2023-04-24T03:35:13;9.50;99.90
20658;DHT22;10488;50.846;4.078;2023-04-24T03:37:39;9.70;99.90
20658;DHT22;10488;50.846;4.078;2023-04-24T03:40:05;9.80;99.90
20658;DHT22;10488;50.846;4.078;2023-04-24T03:42:32;9.80;99.90
20658;DHT22;10488;50.846;4.078;2023-04-24T03:44:58;9.80;99.90
20658;DHT22;10488;50.846;4.078;2023-04-24T03:47:24;9.90;99.90
20658;DHT22;10488;50.846;4.078;2023-04-24T03:49:49;9.80;99.90
20658;DHT22;10488;50.846;4.078;2023-04-24T03:52:15;9.80;99.90
20658;DHT22;10488;50.846;4.078;2023-04-24T03:54:41;9.80;99.90
20658;DHT22;10488;50.846;4.078;2023-04-24T03:57:06;9.90;99.90
20658;DHT22;10488;50.846;4.078;2023-04-24T03:59:32;9.80;99.90
20658;DHT22;10488;50.846;4.078;2023-04-24T04:01:58;9.80;99.90
20658;DHT22;10488;50.846;4.078;2023-04-24T04:04:24;9.90;99.90
20658;DHT22;10488;50.846;4.078;2023-04-24T04:06:50;9.80;99.90
20658;DHT22;10488;50.846;4.078;2023-04-24T04:09:16;9.80;99.90
20658;DHT22;10488;50.846;4.078;2023-04-24T04:11:42;9.90;99.90
20658;DHT22;10488;50.846;4.078;2023-04-24T04:14:08;10.00;99.90
20658;DHT22;10488;50.846;4.078;2023-04-24T04:16:33;9.90;99.90
20658;DHT22;10488;50.846;4.078;2023-04-24T04:18:59;9.90;99.90
20658;DHT22;10488;50.846;4.078;2023-04-24T04:21:25;9.70;99.90
20658;DHT22;10488;50.846;4.078;2023-04-24T04:23:51;9.80;99.90
20658;DHT22;10488;50.846;4.078;2023-04-24T04:26:17;9.50;99.90
20658;DHT22;10488;50.846;4.078;2023-04-24T04:28:44;9.50;99.90
20658;DHT22;10488;50.846;4.078;2023-04-24T04:31:10;9.40;99.90
20658;DHT22;10488;50.846;4.078;2023-04-24T04:33:35;9.30;99.90
20658;DHT22;10488;50.846;4.078;2023-04-24T04:36:03;9.30;99.90
20658;DHT22;10488;50.846;4.078;2023-04-24T04:38:29;9.20;99.90
20658;DHT22;10488;50.846;4.078;2023-04-24T04:40:55;9.30;99.90
20658;DHT22;10488;50.846;4.078;2023-04-24T04:43:23;9.40;99.90
20658;DHT22;10488;50.846;4.078;2023-04-24T04:45:49;9.50;99.90
20658;DHT22;10488;50.846;4.078;2023-04-24T04:48:16;9.50;99.90
20658;DHT22;10488;50.846;4.078;2023-04-24T04:50:43;9.60;99.90
20658;DHT22;10488;50.846;4.078;2023-04-24T04:53:08;9.50;99.90
20658;DHT22;10488;50.846;4.078;2023-04-24T04:55:34;9.50;99.90
20658;DHT22;10488;50.846;4.078;2023-04-24T04:58:00;9.60;99.90
20658;DHT22;10488;50.846;4.078;2023-04-24T05:00:26;9.60;99.90
20658;DHT22;10488;50.846;4.078;2023-04-24T05:02:52;9.50;99.90
20658;DHT22;10488;50.846;4.078;2023-04-24T05:05:18;9.50;99.90
20658;DHT22;10488;50.846;4.078;2023-04-24T05:07:44;9.40;99.90
20658;DHT22;10488;50.846;4.078;2023-04-24T05:10:10;9.40;99.90
20658;DHT22;10488;50.846;4.078;2023-04-24T05:12:36;9.40;99.90
20658;DHT22;10488;50.846;4.078;2023-04-24T05:15:02;9.40;99.90
20658;DHT22;10488;50.846;4.078;2023-04-24T05:17:28;9.60;99.90
20658;DHT22;10488;50.846;4.078;2023-04-24T05:19:54;9.70;99.90
20658;DHT22;10488;50.846;4.078;2023-04-24T05:22:20;9.70;99.90
20658;DHT22;10488;50.846;4.078;2023-04-24T05:24:47;9.60;99.90
20658;DHT22;10488;50.846;4.078;2023-04-24T05:27:13;9.60;99.90
20658;DHT22;10488;50.846;4.078;2023-04-24T05:29:39;9.50;99.90
20658;DHT22;10488;50.846;4.078;2023-04-24T05:32:05;9.40;99.90
20658;DHT22;10488;50.846;4.078;2023-04-24T05:34:32;9.60;99.90
20658;DHT22;10488;50.846;4.078;2023-04-24T05:36:57;9.70;99.90
20658;DHT22;10488;50.846;4.078;2023-04-24T05:39:23;9.70;99.90
20658;DHT22;10488;50.846;4.078;2023-04-24T05:41:50;9.60;99.90
20658;DHT22;10488;50.846;4.078;2023-04-24T05:44:16;9.70;99.90
20658;DHT22;10488;50.846;4.078;2023-04-24T05:46:42;9.60;99.90
20658;DHT22;10488;50.846;4.078;2023-04-24T05:49:08;9.40;99.90
20658;DHT22;10488;50.846;4.078;2023-04-24T05:51:33;9.40;99.90
20658;DHT22;10488;50.846;4.078;2023-04-24T05:53:59;9.30;99.90
20658;DHT22;10488;50.846;4.078;2023-04-24T05:56:25;9.50;99.90
20658;DHT22;10488;50.846;4.078;2023-04-24T05:58:50;9.40;99.90
20658;DHT22;10488;50.846;4.078;2023-04-24T06:01:16;9.40;99.90
20658;DHT22;10488;50.846;4.078;2023-04-24T06:03:42;9.20;99.90
20658;DHT22;10488;50.846;4.078;2023-04-24T06:06:08;9.30;99.90
20658;DHT22;10488;50.846;4.078;2023-04-24T06:08:34;9.30;99.90
20658;DHT22;10488;50.846;4.078;2023-04-24T06:11:00;9.10;99.90
20658;DHT22;10488;50.846;4.078;2023-04-24T06:13:26;8.90;99.90
20658;DHT22;10488;50.846;4.078;2023-04-24T06:15:52;9.00;99.90
20658;DHT22;10488;50.846;4.078;2023-04-24T06:18:18;9.10;99.90
20658;DHT22;10488;50.846;4.078;2023-04-24T06:20:45;9.20;99.90
20658;DHT22;10488;50.846;4.078;2023-04-24T06:23:11;9.30;99.90
20658;DHT22;10488;50.846;4.078;2023-04-24T06:25:37;9.30;99.90
20658;DHT22;10488;50.846;4.078;2023-04-24T06:28:03;9.30;99.90
20658;DHT22;10488;50.846;4.078;2023-04-24T06:30:29;9.30;99.90
20658;DHT22;10488;50.846;4.078;2023-04-24T06:32:55;9.40;99.90
20658;DHT22;10488;50.846;4.078;2023-04-24T06:35:20;9.50;99.90
20658;DHT22;10488;50.846;4.078;2023-04-24T06:37:46;9.60;99.90
20658;DHT22;10488;50.846;4.078;2023-04-24T06:40:12;9.70;99.90
20658;DHT22;10488;50.846;4.078;2023-04-24T06:42:38;9.80;99.90
20658;DHT22;10488;50.846;4.078;2023-04-24T06:45:04;9.90;99.90
20658;DHT22;10488;50.846;4.078;2023-04-24T06:47:30;9.90;99.90
20658;DHT22;10488;50.846;4.078;2023-04-24T06:49:56;10.10;99.90
20658;DHT22;10488;50.846;4.078;2023-04-24T06:52:22;10.20;99.90
20658;DHT22;10488;50.846;4.078;2023-04-24T06:54:48;10.10;99.90
20658;DHT22;10488;50.846;4.078;2023-04-24T06:57:13;10.20;99.90
20658;DHT22;10488;50.846;4.078;2023-04-24T06:59:41;10.20;99.90
20658;DHT22;10488;50.846;4.078;2023-04-24T07:02:07;10.20;99.90
20658;DHT22;10488;50.846;4.078;2023-04-24T07:04:33;10.40;99.90
20658;DHT22;10488;50.846;4.078;2023-04-24T07:06:58;10.40;99.90
20658;DHT22;10488;50.846;4.078;2023-04-24T07:09:26;10.40;99.90
20658;DHT22;10488;50.846;4.078;2023-04-24T07:11:52;10.30;99.90
20658;DHT22;10488;50.846;4.078;2023-04-24T07:14:19;10.30;99.90
20658;DHT22;10488;50.846;4.078;2023-04-24T07:16:44;10.30;99.90
20658;DHT22;10488;50.846;4.078;2023-04-24T07:19:11;10.30;99.90
20658;DHT22;10488;50.846;4.078;2023-04-24T07:21:37;10.40;99.90
20658;DHT22;10488;50.846;4.078;2023-04-24T07:24:02;10.50;99.90
20658;DHT22;10488;50.846;4.078;2023-04-24T07:26:30;10.50;99.90
20658;DHT22;10488;50.846;4.078;2023-04-24T07:28:56;10.40;99.90
20658;DHT22;10488;50.846;4.078;2023-04-24T07:31:21;10.40;99.90
20658;DHT22;10488;50.846;4.078;2023-04-24T07:33:48;10.60;99.90
20658;DHT22;10488;50.846;4.078;2023-04-24T07:36:14;11.10;99.90
20658;DHT22;10488;50.846;4.078;2023-04-24T07:38:47;11.50;99.90
20658;DHT22;10488;50.846;4.078;2023-04-24T07:41:13;11.40;99.90
20658;DHT22;10488;50.846;4.078;2023-04-24T07:43:39;11.50;99.90
20658;DHT22;10488;50.846;4.078;2023-04-24T07:46:06;11.40;99.90
20658;DHT22;10488;50.846;4.078;2023-04-24T07:48:32;11.20;99.90
20658;DHT22;10488;50.846;4.078;2023-04-24T07:50:58;11.10;99.90
20658;DHT22;10488;50.846;4.078;2023-04-24T07:53:24;11.10;99.90
20658;DHT22;10488;50.846;4.078;2023-04-24T07:55:50;11.10;99.90
20658;DHT22;10488;50.846;4.078;2023-04-24T07:58:15;11.20;99.90
20658;DHT22;10488;50.846;4.078;2023-04-24T08:00:41;11.40;99.90
20658;DHT22;10488;50.846;4.078;2023-04-24T08:03:07;11.40;99.90
20658;DHT22;10488;50.846;4.078;2023-04-24T08:05:32;11.40;99.90
20658;DHT22;10488;50.846;4.078;2023-04-24T08:07:58;11.30;99.90
20658;DHT22;10488;50.846;4.078;2023-04-24T08:10:24;11.40;99.90
20658;DHT22;10488;50.846;4.078;2023-04-24T08:12:50;11.30;99.90
20658;DHT22;10488;50.846;4.078;2023-04-24T08:15:17;11.30;99.90
20658;DHT22;10488;50.846;4.078;2023-04-24T08:17:42;11.40;99.90
20658;DHT22;10488;50.846;4.078;2023-04-24T08:20:09;11.30;99.90
20658;DHT22;10488;50.846;4.078;2023-04-24T08:22:39;11.50;99.90
20658;DHT22;10488;50.846;4.078;2023-04-24T08:25:06;11.90;99.90
20658;DHT22;10488;50.846;4.078;2023-04-24T08:27:31;12.50;99.90
20658;DHT22;10488;50.846;4.078;2023-04-24T08:29:57;12.70;99.90
20658;DHT22;10488;50.846;4.078;2023-04-24T08:32:24;13.10;99.90
20658;DHT22;10488;50.846;4.078;2023-04-24T08:34:50;13.60;99.90
20658;DHT22;10488;50.846;4.078;2023-04-24T08:37:18;13.70;99.90
20658;DHT22;10488;50.846;4.078;2023-04-24T08:39:44;14.00;99.90
20658;DHT22;10488;50.846;4.078;2023-04-24T08:42:11;14.40;99.90
20658;DHT22;10488;50.846;4.078;2023-04-24T08:44:38;14.90;99.90
20658;DHT22;10488;50.846;4.078;2023-04-24T08:47:04;14.60;99.90
20658;DHT22;10488;50.846;4.078;2023-04-24T08:49:31;14.50;99.90
20658;DHT22;10488;50.846;4.078;2023-04-24T08:51:57;14.60;99.90
20658;DHT22;10488;50.846;4.078;2023-04-24T08:54:23;14.50;99.90
20658;DHT22;10488;50.846;4.078;2023-04-24T08:56:50;14.00;99.90
20658;DHT22;10488;50.846;4.078;2023-04-24T08:59:19;14.20;99.90
20658;DHT22;10488;50.846;4.078;2023-04-24T09:01:45;13.90;99.90
20658;DHT22;10488;50.846;4.078;2023-04-24T09:04:12;13.90;99.90
20658;DHT22;10488;50.846;4.078;2023-04-24T09:06:40;13.50;99.90
20658;DHT22;10488;50.846;4.078;2023-04-24T09:09:06;12.80;99.90
20658;DHT22;10488;50.846;4.078;2023-04-24T09:11:32;12.40;99.90
20658;DHT22;10488;50.846;4.078;2023-04-24T09:13:58;13.10;99.90
20658;DHT22;10488;50.846;4.078;2023-04-24T09:16:25;13.90;99.90
20658;DHT22;10488;50.846;4.078;2023-04-24T09:18:51;14.70;99.90
20658;DHT22;10488;50.846;4.078;2023-04-24T09:21:17;15.20;99.90
20658;DHT22;10488;50.846;4.078;2023-04-24T09:23:43;15.50;99.90
20658;DHT22;10488;50.846;4.078;2023-04-24T09:26:09;15.00;99.90
20658;DHT22;10488;50.846;4.078;2023-04-24T09:28:38;14.40;99.90
20658;DHT22;10488;50.846;4.078;2023-04-24T09:33:35;13.70;99.90
20658;DHT22;10488;50.846;4.078;2023-04-24T09:36:01;13.30;99.90
20658;DHT22;10488;50.846;4.078;2023-04-24T09:38:35;13.10;99.90
20658;DHT22;10488;50.846;4.078;2023-04-24T09:41:03;13.00;99.90
20658;DHT22;10488;50.846;4.078;2023-04-24T09:43:30;12.90;99.90
20658;DHT22;10488;50.846;4.078;2023-04-24T09:45:57;12.90;99.90
20658;DHT22;10488;50.846;4.078;2023-04-24T09:48:31;12.10;99.90
20658;DHT22;10488;50.846;4.078;2023-04-24T09:50:57;12.10;99.90
20658;DHT22;10488;50.846;4.078;2023-04-24T09:53:27;12.30;99.90
20658;DHT22;10488;50.846;4.078;2023-04-24T09:55:53;12.40;99.90
20658;DHT22;10488;50.846;4.078;2023-04-24T09:58:25;12.50;99.90
20658;DHT22;10488;50.846;4.078;2023-04-24T10:00:53;12.70;99.90
20658;DHT22;10488;50.846;4.078;2023-04-24T10:03:20;12.80;99.90
20658;DHT22;10488;50.846;4.078;2023-04-24T10:05:46;12.80;99.90
20658;DHT22;10488;50.846;4.078;2023-04-24T10:08:13;12.60;99.90
20658;DHT22;10488;50.846;4.078;2023-04-24T10:10:42;12.50;99.90
20658;DHT22;10488;50.846;4.078;2023-04-24T10:13:12;12.50;99.90
20658;DHT22;10488;50.846;4.078;2023-04-24T10:15:38;12.10;99.90
20658;DHT22;10488;50.846;4.078;2023-04-24T10:18:05;12.40;99.90
20658;DHT22;10488;50.846;4.078;2023-04-24T10:20:33;12.60;99.90
20658;DHT22;10488;50.846;4.078;2023-04-24T10:23:00;12.70;99.90
20658;DHT22;10488;50.846;4.078;2023-04-24T10:25:28;13.00;99.90
20658;DHT22;10488;50.846;4.078;2023-04-24T10:27:55;13.40;99.90
20658;DHT22;10488;50.846;4.078;2023-04-24T10:30:29;13.70;99.90
20658;DHT22;10488;50.846;4.078;2023-04-24T10:32:55;14.00;99.90
20658;DHT22;10488;50.846;4.078;2023-04-24T10:35:22;13.80;99.90
20658;DHT22;10488;50.846;4.078;2023-04-24T10:37:54;13.60;99.90
20658;DHT22;10488;50.846;4.078;2023-04-24T10:40:31;13.50;99.90
20658;DHT22;10488;50.846;4.078;2023-04-24T10:42:57;13.70;99.90
20658;DHT22;10488;50.846;4.078;2023-04-24T10:45:23;13.70;99.90
20658;DHT22;10488;50.846;4.078;2023-04-24T10:47:56;13.60;99.90
20658;DHT22;10488;50.846;4.078;2023-04-24T10:50:22;13.50;99.90
20658;DHT22;10488;50.846;4.078;2023-04-24T10:52:48;13.40;99.90
20658;DHT22;10488;50.846;4.078;2023-04-24T10:55:17;13.50;99.90
20658;DHT22;10488;50.846;4.078;2023-04-24T10:58:03;13.50;99.90
20658;DHT22;10488;50.846;4.078;2023-04-24T11:00:29;13.70;99.90
20658;DHT22;10488;50.846;4.078;2023-04-24T11:02:55;13.80;99.90
20658;DHT22;10488;50.846;4.078;2023-04-24T11:05:22;13.80;99.90
20658;DHT22;10488;50.846;4.078;2023-04-24T11:08:15;13.60;99.90
20658;DHT22;10488;50.846;4.078;2023-04-24T11:10:46;13.70;99.90
20658;DHT22;10488;50.846;4.078;2023-04-24T11:13:16;13.80;99.90
20658;DHT22;10488;50.846;4.078;2023-04-24T11:15:42;13.60;99.90
20658;DHT22;10488;50.846;4.078;2023-04-24T11:18:16;13.30;99.90
20658;DHT22;10488;50.846;4.078;2023-04-24T11:20:44;13.40;99.90
20658;DHT22;10488;50.846;4.078;2023-04-24T11:23:12;13.70;99.90
20658;DHT22;10488;50.846;4.078;2023-04-24T11:25:38;12.80;99.90
20658;DHT22;10488;50.846;4.078;2023-04-24T11:28:05;13.00;99.90
20658;DHT22;10488;50.846;4.078;2023-04-24T11:30:32;13.30;99.90
20658;DHT22;10488;50.846;4.078;2023-04-24T11:33:05;13.30;99.90
20658;DHT22;10488;50.846;4.078;2023-04-24T11:35:36;13.60;99.90
20658;DHT22;10488;50.846;4.078;2023-04-24T11:38:04;14.00;99.90
20658;DHT22;10488;50.846;4.078;2023-04-24T11:40:30;14.30;99.90
20658;DHT22;10488;50.846;4.078;2023-04-24T11:42:56;14.40;99.90
20658;DHT22;10488;50.846;4.078;2023-04-24T11:45:30;14.60;99.90
20658;DHT22;10488;50.846;4.078;2023-04-24T11:47:56;14.30;99.90
20658;DHT22;10488;50.846;4.078;2023-04-24T11:50:24;14.20;99.90
20658;DHT22;10488;50.846;4.078;2023-04-24T11:52:54;14.30;99.90
20658;DHT22;10488;50.846;4.078;2023-04-24T11:57:50;13.90;99.90
20658;DHT22;10488;50.846;4.078;2023-04-24T12:02:46;13.90;99.90
20658;DHT22;10488;50.846;4.078;2023-04-24T12:05:26;14.30;99.90
20658;DHT22;10488;50.846;4.078;2023-04-24T12:07:53;14.80;99.90
20658;DHT22;10488;50.846;4.078;2023-04-24T12:10:23;14.80;99.90
20658;DHT22;10488;50.846;4.078;2023-04-24T12:12:50;14.80;99.90
20658;DHT22;10488;50.846;4.078;2023-04-24T12:15:18;14.70;99.90
20658;DHT22;10488;50.846;4.078;2023-04-24T12:17:44;14.40;99.90
20658;DHT22;10488;50.846;4.078;2023-04-24T12:20:11;14.30;99.90
20658;DHT22;10488;50.846;4.078;2023-04-24T12:22:56;14.00;99.90
20658;DHT22;10488;50.846;4.078;2023-04-24T12:25:27;14.40;99.90
20658;DHT22;10488;50.846;4.078;2023-04-24T12:28:14;14.30;99.90
20658;DHT22;10488;50.846;4.078;2023-04-24T12:30:47;14.40;99.90
20658;DHT22;10488;50.846;4.078;2023-04-24T12:33:18;14.80;99.90
20658;DHT22;10488;50.846;4.078;2023-04-24T12:35:44;15.30;99.90
20658;DHT22;10488;50.846;4.078;2023-04-24T12:38:13;15.30;99.90
20658;DHT22;10488;50.846;4.078;2023-04-24T12:40:43;14.70;99.90
20658;DHT22;10488;50.846;4.078;2023-04-24T12:43:19;14.80;99.90
20658;DHT22;10488;50.846;4.078;2023-04-24T12:45:45;14.10;99.90
20658;DHT22;10488;50.846;4.078;2023-04-24T12:48:11;14.30;99.90
20658;DHT22;10488;50.846;4.078;2023-04-24T12:50:38;14.50;99.90
20658;DHT22;10488;50.846;4.078;2023-04-24T12:53:04;15.00;99.90
20658;DHT22;10488;50.846;4.078;2023-04-24T12:55:29;15.00;99.90
20658;DHT22;10488;50.846;4.078;2023-04-24T12:57:55;14.90;99.90
20658;DHT22;10488;50.846;4.078;2023-04-24T13:00:21;14.60;99.90
20658;DHT22;10488;50.846;4.078;2023-04-24T13:02:47;14.90;99.90
20658;DHT22;10488;50.846;4.078;2023-04-24T13:05:13;14.50;99.90
20658;DHT22;10488;50.846;4.078;2023-04-24T13:07:39;14.40;99.90
20658;DHT22;10488;50.846;4.078;2023-04-24T13:10:06;14.80;99.90
20658;DHT22;10488;50.846;4.078;2023-04-24T13:12:32;15.00;99.90
20658;DHT22;10488;50.846;4.078;2023-04-24T13:14:58;14.70;99.90
20658;DHT22;10488;50.846;4.078;2023-04-24T13:17:24;14.70;99.90
20658;DHT22;10488;50.846;4.078;2023-04-24T13:19:51;15.00;99.90
20658;DHT22;10488;50.846;4.078;2023-04-24T13:22:17;14.90;99.90
20658;DHT22;10488;50.846;4.078;2023-04-24T13:24:46;14.80;99.90
20658;DHT22;10488;50.846;4.078;2023-04-24T13:27:14;14.90;99.90
20658;DHT22;10488;50.846;4.078;2023-04-24T13:29:40;15.00;99.90
20658;DHT22;10488;50.846;4.078;2023-04-24T13:32:07;14.90;99.90
20658;DHT22;10488;50.846;4.078;2023-04-24T13:34:33;15.00;99.90
20658;DHT22;10488;50.846;4.078;2023-04-24T13:37:00;15.10;99.90
20658;DHT22;10488;50.846;4.078;2023-04-24T13:39:26;14.90;99.90
20658;DHT22;10488;50.846;4.078;2023-04-24T13:41:52;14.30;99.90
20658;DHT22;10488;50.846;4.078;2023-04-24T13:44:19;14.40;99.90
20658;DHT22;10488;50.846;4.078;2023-04-24T13:46:47;14.20;99.90
20658;DHT22;10488;50.846;4.078;2023-04-24T13:49:14;13.90;99.90
20658;DHT22;10488;50.846;4.078;2023-04-24T13:51:40;14.30;99.90
20658;DHT22;10488;50.846;4.078;2023-04-24T13:54:06;14.80;99.90
20658;DHT22;10488;50.846;4.078;2023-04-24T13:56:32;15.10;99.90
20658;DHT22;10488;50.846;4.078;2023-04-24T13:58:57;15.00;99.90
20658;DHT22;10488;50.846;4.078;2023-04-24T14:01:24;15.00;99.90
20658;DHT22;10488;50.846;4.078;2023-04-24T14:03:54;14.50;99.90
20658;DHT22;10488;50.846;4.078;2023-04-24T14:06:20;14.30;99.90
20658;DHT22;10488;50.846;4.078;2023-04-24T14:08:47;13.70;99.90
20658;DHT22;10488;50.846;4.078;2023-04-24T14:11:13;13.90;99.90
20658;DHT22;10488;50.846;4.078;2023-04-24T14:13:40;13.80;99.90
20658;DHT22;10488;50.846;4.078;2023-04-24T14:16:06;13.70;99.90
20658;DHT22;10488;50.846;4.078;2023-04-24T14:18:32;13.70;99.90
20658;DHT22;10488;50.846;4.078;2023-04-24T14:20:58;13.80;99.90
20658;DHT22;10488;50.846;4.078;2023-04-24T14:23:24;14.00;99.90
20658;DHT22;10488;50.846;4.078;2023-04-24T14:25:50;14.20;99.90
20658;DHT22;10488;50.846;4.078;2023-04-24T14:28:21;14.20;99.90
20658;DHT22;10488;50.846;4.078;2023-04-24T14:30:47;14.10;99.90
20658;DHT22;10488;50.846;4.078;2023-04-24T14:33:13;14.10;99.90
20658;DHT22;10488;50.846;4.078;2023-04-24T14:35:42;13.80;99.90
20658;DHT22;10488;50.846;4.078;2023-04-24T14:38:09;14.40;99.90
20658;DHT22;10488;50.846;4.078;2023-04-24T14:40:35;14.60;99.90
20658;DHT22;10488;50.846;4.078;2023-04-24T14:43:00;14.60;99.90
20658;DHT22;10488;50.846;4.078;2023-04-24T14:45:26;14.70;99.90
20658;DHT22;10488;50.846;4.078;2023-04-24T14:47:53;14.20;99.90
20658;DHT22;10488;50.846;4.078;2023-04-24T14:50:18;14.50;99.90
20658;DHT22;10488;50.846;4.078;2023-04-24T14:52:44;14.60;99.90
20658;DHT22;10488;50.846;4.078;2023-04-24T14:55:10;14.20;99.90
20658;DHT22;10488;50.846;4.078;2023-04-24T14:57:36;14.00;99.90
20658;DHT22;10488;50.846;4.078;2023-04-24T15:00:03;14.00;99.90
20658;DHT22;10488;50.846;4.078;2023-04-24T15:02:32;14.10;99.90
20658;DHT22;10488;50.846;4.078;2023-04-24T15:04:58;14.30;99.90
20658;DHT22;10488;50.846;4.078;2023-04-24T15:07:24;14.20;99.90
20658;DHT22;10488;50.846;4.078;2023-04-24T15:09:50;13.70;99.90
20658;DHT22;10488;50.846;4.078;2023-04-24T15:12:15;14.00;99.90
20658;DHT22;10488;50.846;4.078;2023-04-24T15:14:41;14.50;99.90
20658;DHT22;10488;50.846;4.078;2023-04-24T15:17:07;14.40;99.90
20658;DHT22;10488;50.846;4.078;2023-04-24T15:19:32;13.80;99.90
20658;DHT22;10488;50.846;4.078;2023-04-24T15:21:58;13.80;99.90
20658;DHT22;10488;50.846;4.078;2023-04-24T15:24:24;13.80;99.90
20658;DHT22;10488;50.846;4.078;2023-04-24T15:26:50;13.90;99.90
20658;DHT22;10488;50.846;4.078;2023-04-24T15:29:15;13.50;99.90
20658;DHT22;10488;50.846;4.078;2023-04-24T15:31:41;13.80;99.90
20658;DHT22;10488;50.846;4.078;2023-04-24T15:34:07;14.10;99.90
20658;DHT22;10488;50.846;4.078;2023-04-24T15:36:34;14.20;99.90
20658;DHT22;10488;50.846;4.078;2023-04-24T15:39:01;13.80;99.90
20658;DHT22;10488;50.846;4.078;2023-04-24T15:41:27;13.50;99.90